UBBB/BAK METAR and TAF weather

Enter ICAO airport designator
Station Type Date Time Source
UBBB METAR 2021/07/26 17:00 UTC NOAA

UBBB 261700Z 33014KT CAVOK 28/19 Q1011 R88/CLRD// NOSIG


Station Type Date Time Source
UBBB Decoded METAR 2021/07/26 17:00 UTC NOAA

Baku / Bine Airport, Azerbaijan (UBBB) 40-27N 050-04E -1M
Jul 26, 2021 - 01:00 PM EDT / 2021.07.26 1700 UTC
Wind: from the NNW (330 degrees) at 16 MPH (14 KT):0
Visibility: greater than 7 mile(s):0
Temperature: 82 F (28 C)
Dew Point: 66 F (19 C)
Relative Humidity: 58%
Pressure (altimeter): 29.85 in. Hg (1011 hPa)
ob: UBBB 261700Z 33014KT CAVOK 28/19 Q1011 R88/CLRD// NOSIG
cycle: 17

Station Type Date Time Source
UBBB TAF 2021/07/26 12:09 UTC NOAA

TAF TAF UBBB 261106Z 2612/2712 33020G30KT CAVOK TX31/2612Z TN25/2701Z
TEMPO 2612/2620 34016KT FEW012 FEW040
TEMPO 2620/2708 33026G36KT SCT012 SCT040CB PROB40
TEMPO 2622/2706 -SHRA SCT040CB

Example: see airport list